createdAt,value
2023-01-17T04:45:26.790Z,0
2023-01-17T04:47:26.649Z,0
2023-01-17T04:49:26.538Z,0
2023-01-17T04:51:26.626Z,0
2023-01-17T04:53:26.275Z,0
2023-01-17T04:55:26.712Z,0
2023-01-17T04:57:26.690Z,0
2023-01-17T04:59:26.933Z,0
2023-01-17T05:01:27.479Z,0
2023-01-17T05:02:26.875Z,0
2023-01-17T05:03:26.914Z,0
2023-01-17T05:05:26.447Z,50
2023-01-17T05:07:26.431Z,75.95
2023-01-17T05:09:26.936Z,75.88
2023-01-17T05:11:26.300Z,76.03
2023-01-17T05:13:26.894Z,75.87
2023-01-17T05:15:27.442Z,75.68
2023-01-17T05:17:26.547Z,75.58
2023-01-17T05:19:27.056Z,75.50
2023-01-17T05:21:26.829Z,75.55
2023-01-17T05:23:26.433Z,75.66
2023-01-17T05:25:26.748Z,75.59
2023-01-17T05:27:26.699Z,75.62
2023-01-17T05:29:26.863Z,75.73
2023-01-17T05:31:26.828Z,75.79
2023-01-17T05:33:27.393Z,75.78
2023-01-17T05:34:26.624Z,75.78
2023-01-17T05:35:26.813Z,75.77
2023-01-17T05:37:26.045Z,75.85
2023-01-17T05:38:26.629Z,75.88
2023-01-17T05:39:26.917Z,76.01
2023-01-17T05:41:26.601Z,76.15
2023-01-17T05:43:26.940Z,76.43
2023-01-17T05:45:27.299Z,76.52
2023-01-17T05:47:27.097Z,76.61
2023-01-17T05:48:26.581Z,76.61
2023-01-17T05:49:26.983Z,76.69
2023-01-17T05:50:26.805Z,76.69
2023-01-17T05:51:27.139Z,76.67
2023-01-17T05:53:26.930Z,76.88
2023-01-17T05:54:27.073Z,77.07
2023-01-17T05:55:26.464Z,77.20
2023-01-17T05:57:40.617Z,77.51
2023-01-17T05:59:37.494Z,77.43
2023-01-17T06:01:27.226Z,77.68
2023-01-17T06:03:26.981Z,77.65
2023-01-17T06:05:27.513Z,77.77
2023-01-17T06:07:26.975Z,77.61
2023-01-17T06:09:26.823Z,77.66
2023-01-17T06:11:26.730Z,77.65
2023-01-17T06:13:26.982Z,77.75
2023-01-17T06:14:26.375Z,77.75
2023-01-17T06:15:27.008Z,77.91
2023-01-17T06:17:27.368Z,77.79
2023-01-17T06:19:27.023Z,77.81
2023-01-17T06:21:26.797Z,77.83
2023-01-17T06:23:26.770Z,77.68
2023-01-17T06:25:26.867Z,77.65
2023-01-17T06:27:26.781Z,77.61
2023-01-17T06:29:26.549Z,77.56
2023-01-17T06:31:26.984Z,77.54
2023-01-17T06:33:54.401Z,77.54
2023-01-17T06:35:26.754Z,77.64
2023-01-17T06:37:27.044Z,77.66
2023-01-17T06:39:27.157Z,77.80
2023-01-17T06:41:26.911Z,77.76
2023-01-17T06:43:26.304Z,77.69
2023-01-17T06:45:27.223Z,77.72
2023-01-17T06:47:26.739Z,77.63
2023-01-17T06:49:26.955Z,77.80
2023-01-17T06:51:26.795Z,77.88
2023-01-17T06:53:27.204Z,77.84
2023-01-17T06:55:27.508Z,77.72
2023-01-17T06:57:27.656Z,77.66
2023-01-17T06:59:26.965Z,77.66
2023-01-17T07:01:27.021Z,77.69
2023-01-17T07:03:27.141Z,77.43
2023-01-17T07:05:27.101Z,77.61
2023-01-17T07:07:26.815Z,77.62
2023-01-17T07:09:27.273Z,77.48
2023-01-17T07:11:26.726Z,77.33
2023-01-17T07:13:26.687Z,77.31
2023-01-17T07:15:27.262Z,77.44
2023-01-17T07:17:26.997Z,77.35
2023-01-17T07:19:26.897Z,77.30
2023-01-17T07:20:27.456Z,77.24
2023-01-17T07:21:26.998Z,77.18
2023-01-17T07:22:26.936Z,77.15
2023-01-17T07:23:27.248Z,77.30
2023-01-17T07:24:26.859Z,77.54
2023-01-17T07:25:27.864Z,77.83
2023-01-17T07:26:26.721Z,77.83
2023-01-17T07:27:27.179Z,77.95
2023-01-17T07:28:27.001Z,77.93
2023-01-17T07:29:27.102Z,77.92
2023-01-17T07:30:27.134Z,77.78
2023-01-17T07:31:26.822Z,77.54
2023-01-17T07:33:27.095Z,77.44
2023-01-17T07:35:26.984Z,77.40
2023-01-17T07:37:27.057Z,77.50
2023-01-17T07:38:26.660Z,77.58
2023-01-17T07:39:27.076Z,77.79
2023-01-17T07:41:26.742Z,77.76
2023-01-17T07:43:26.972Z,77.92
2023-01-17T07:45:27.297Z,78.01
2023-01-17T07:46:27.369Z,78.00
2023-01-17T07:47:26.981Z,78.10
2023-01-17T07:49:27.587Z,78.68
2023-01-17T07:51:27.276Z,78.80
2023-01-17T07:53:27.549Z,78.73
2023-01-17T07:55:27.218Z,78.67
2023-01-17T07:57:27.439Z,78.90
2023-01-17T07:59:27.361Z,78.75
2023-01-17T08:01:28.011Z,79.06
2023-01-17T08:02:31.844Z,79.04
2023-01-17T08:03:27.743Z,78.98
2023-01-17T08:05:27.589Z,78.89
2023-01-17T08:06:27.459Z,78.87
2023-01-17T08:07:27.361Z,78.89
2023-01-17T08:09:27.267Z,78.94
2023-01-17T08:11:27.277Z,78.85
2023-01-17T08:12:27.038Z,78.79
2023-01-17T08:13:29.009Z,78.60
2023-01-17T08:15:27.035Z,78.45
2023-01-17T08:16:26.934Z,78.52
2023-01-17T08:17:26.834Z,78.51
2023-01-17T08:19:26.803Z,78.77
2023-01-17T08:20:28.092Z,78.73
2023-01-17T08:21:26.914Z,78.66
2023-01-17T08:23:27.105Z,78.31
2023-01-17T08:25:27.590Z,78.24
2023-01-17T08:27:27.385Z,78.27
2023-01-17T08:29:26.575Z,78.56
2023-01-17T08:31:27.805Z,78.56
2023-01-17T08:33:26.928Z,78.67
2023-01-17T08:34:27.671Z,78.76
2023-01-17T08:35:27.470Z,78.91
2023-01-17T08:37:26.984Z,78.82
2023-01-17T08:38:26.689Z,78.76
2023-01-17T08:39:27.123Z,78.71
2023-01-17T08:40:27.244Z,78.66
2023-01-17T08:41:26.867Z,78.49
2023-01-17T08:43:26.678Z,78.45
2023-01-17T08:45:27.209Z,78.23
2023-01-17T08:47:27.077Z,78.22
2023-01-17T08:49:27.347Z,78.13
2023-01-17T08:50:26.953Z,78.13
2023-01-17T08:51:27.227Z,78.16
2023-01-17T08:53:27.171Z,78.26
2023-01-17T08:55:27.083Z,78.16
2023-01-17T08:57:26.709Z,77.87
2023-01-17T08:59:27.572Z,77.73
2023-01-17T09:01:27.132Z,77.57
2023-01-17T09:02:27.185Z,77.57
2023-01-17T09:03:27.047Z,77.36
2023-01-17T09:04:26.936Z,77.35
2023-01-17T09:05:27.436Z,77.43
2023-01-17T09:07:27.204Z,77.18
2023-01-17T09:09:27.178Z,76.95
2023-01-17T09:10:27.296Z,76.86
2023-01-17T09:11:26.737Z,76.67
2023-01-17T09:13:26.760Z,76.53
2023-01-17T09:14:27.188Z,76.43
2023-01-17T09:15:27.032Z,76.46
2023-01-17T09:16:26.986Z,76.35
2023-01-17T09:17:26.628Z,76.20
2023-01-17T09:19:26.802Z,76.43
2023-01-17T09:21:26.790Z,76.48
2023-01-17T09:23:26.917Z,76.16
2023-01-17T09:25:27.040Z,76.32
2023-01-17T09:26:26.656Z,76.27
2023-01-17T09:27:27.451Z,76.31
2023-01-17T09:29:27.138Z,76.42
2023-01-17T09:31:28.298Z,75.94
2023-01-17T09:33:27.892Z,75.53
2023-01-17T09:35:27.473Z,75.72
2023-01-17T09:37:27.735Z,75.16
2023-01-17T09:39:27.786Z,75.20
2023-01-17T09:41:27.069Z,75.25
2023-01-17T09:43:27.485Z,75.25
2023-01-17T09:44:26.752Z,75.26
2023-01-17T09:45:27.490Z,74.57
2023-01-17T09:47:27.328Z,74.26
2023-01-17T09:48:26.775Z,74.26
2023-01-17T09:49:27.240Z,73.74
2023-01-17T09:51:27.361Z,73.68
2023-01-17T09:52:27.123Z,73.71
2023-01-17T09:53:26.970Z,73.48
2023-01-17T09:55:27.107Z,73.29
2023-01-17T09:57:27.272Z,73.66
2023-01-17T09:59:35.535Z,73.44
2023-01-17T10:01:27.649Z,73.37
2023-01-17T10:02:28.006Z,73.43
2023-01-17T10:03:27.274Z,73.23
2023-01-17T10:04:27.355Z,72.74
2023-01-17T10:05:27.088Z,72.65
2023-01-17T10:07:27.161Z,72.57
2023-01-17T10:09:27.149Z,72.77
2023-01-17T10:11:27.375Z,72.30
2023-01-17T10:12:27.374Z,72.39
2023-01-17T10:13:27.077Z,72.64
2023-01-17T10:14:26.502Z,72.77
2023-01-17T10:15:27.349Z,72.88
2023-01-17T10:17:26.720Z,72.56
2023-01-17T17:35:27.659Z,73.31
2023-01-17T17:36:27.619Z,73.22
2023-01-17T17:37:26.933Z,73.09
2023-01-17T17:39:27.464Z,73.06
2023-01-17T17:41:27.093Z,73.23
2023-01-17T17:43:27.012Z,73.65
2023-01-17T17:45:27.131Z,73.63
2023-01-17T17:47:27.847Z,73.86
2023-01-17T17:49:27.135Z,74.01
2023-01-17T17:51:27.064Z,74.06
2023-01-17T17:52:26.860Z,74.07
2023-01-17T17:53:27.251Z,74.12
2023-01-17T17:55:27.079Z,74.24
2023-01-17T17:57:27.078Z,74.57
2023-01-17T17:59:27.717Z,74.63
2023-01-17T18:01:27.898Z,74.73
2023-01-17T18:03:26.879Z,74.99
2023-01-17T18:05:27.008Z,75.12
2023-01-17T18:07:26.803Z,75.16
2023-01-17T18:09:26.914Z,75.18
2023-01-17T18:11:27.071Z,75.15
2023-01-17T18:13:26.951Z,75.21
2023-01-17T18:15:27.450Z,75.52
2023-01-17T18:17:27.022Z,75.47
2023-01-17T18:19:27.006Z,75.51
2023-01-17T18:21:27.020Z,75.39
2023-01-17T18:23:27.241Z,75.31
2023-01-17T18:25:27.191Z,75.48
2023-01-17T18:26:26.595Z,75.48
2023-01-17T18:27:27.024Z,75.64
2023-01-17T18:29:27.213Z,75.46
2023-01-17T18:31:27.127Z,75.63
2023-01-17T18:33:27.019Z,75.84
2023-01-17T18:35:27.273Z,75.75
2023-01-17T18:37:27.095Z,75.88
2023-01-17T18:39:27.456Z,75.86
2023-01-17T18:40:24.204Z,75.86
2023-01-17T18:41:27.198Z,75.73
2023-01-17T18:43:27.392Z,75.95
2023-01-17T18:45:27.432Z,75.91
2023-01-17T18:47:26.862Z,76.05
2023-01-17T18:49:27.057Z,76.02
2023-01-17T18:51:26.596Z,75.99
2023-01-17T18:53:27.193Z,75.91
2023-01-17T18:55:27.584Z,75.76
2023-01-17T18:57:27.126Z,75.81
2023-01-17T18:59:26.793Z,76.05
2023-01-17T19:01:27.922Z,76.13
2023-01-17T19:03:27.004Z,76.24
2023-01-17T19:05:27.091Z,76.41
2023-01-17T19:07:27.218Z,76.49
2023-01-17T19:09:27.323Z,76.59
2023-01-17T19:11:27.765Z,76.55
2023-01-17T19:13:27.615Z,76.65
2023-01-17T19:15:27.556Z,76.64
2023-01-17T19:17:26.799Z,76.63
2023-01-17T19:19:27.069Z,76.46
2023-01-17T19:20:26.927Z,76.45
2023-01-17T19:21:27.564Z,76.34
2023-01-17T19:22:26.613Z,76.34
2023-01-17T19:23:27.258Z,76.36
2023-01-17T19:24:27.226Z,76.27
2023-01-17T19:25:27.139Z,76.28
2023-01-17T19:27:27.642Z,76.35
2023-01-17T19:29:27.030Z,76.46
2023-01-17T19:31:27.301Z,76.54
2023-01-17T19:33:27.530Z,76.75
2023-01-17T19:35:27.535Z,76.75
2023-01-17T19:37:27.147Z,76.64
2023-01-17T19:39:27.261Z,76.68
2023-01-17T19:41:27.054Z,76.75
2023-01-17T19:43:27.266Z,76.75
2023-01-17T19:45:27.643Z,76.74
2023-01-17T19:47:27.712Z,76.77
2023-01-17T19:49:26.782Z,76.72
2023-01-17T19:51:27.401Z,76.77
2023-01-17T19:53:26.852Z,76.70
2023-01-17T19:55:27.023Z,76.71
2023-01-17T19:57:26.712Z,76.91
2023-01-17T19:59:27.004Z,76.95
2023-01-17T20:01:27.484Z,77.03
2023-01-17T20:03:27.193Z,77.11
2023-01-17T20:04:26.891Z,77.15
2023-01-17T20:05:27.635Z,77.21
2023-01-17T20:06:26.776Z,77.21
2023-01-17T20:07:32.461Z,77.08
2023-01-17T20:09:26.797Z,77.15
2023-01-17T20:11:27.019Z,77.17
2023-01-17T20:13:26.968Z,77.20
2023-01-17T20:14:26.829Z,77.29
2023-01-17T20:15:27.638Z,77.36
2023-01-17T20:17:26.773Z,77.41
2023-01-17T20:19:26.897Z,77.39
2023-01-17T20:21:27.269Z,77.60
2023-01-17T20:23:27.555Z,77.56
2023-01-17T20:25:27.234Z,77.52
2023-01-17T20:27:26.781Z,77.72
2023-01-17T20:29:27.221Z,77.55
2023-01-17T20:30:30.624Z,77.59
2023-01-17T20:31:27.844Z,77.71
2023-01-17T20:33:27.037Z,77.73
2023-01-17T20:35:27.641Z,77.80
2023-01-17T20:37:27.064Z,77.92
2023-01-17T20:39:26.966Z,78.13
2023-01-17T20:41:46.450Z,78.35
2023-01-17T20:42:27.085Z,78.35
2023-01-17T20:43:45.721Z,78.32
2023-01-17T20:45:27.150Z,78.25
2023-01-17T20:47:27.612Z,78.43
2023-01-17T20:49:27.173Z,78.63
2023-01-17T20:51:27.064Z,78.56
2023-01-17T20:52:26.996Z,78.62
2023-01-17T20:53:26.888Z,78.74
2023-01-17T20:55:27.279Z,78.79
2023-01-17T20:57:27.411Z,78.84
2023-01-17T20:59:26.551Z,78.69
2023-01-17T21:01:27.496Z,78.68
2023-01-17T21:03:26.931Z,78.69
2023-01-17T21:05:26.763Z,78.51
2023-01-17T21:07:26.965Z,78.33
2023-01-17T21:09:27.404Z,78.49
2023-01-17T21:11:27.084Z,78.62
2023-01-17T21:13:26.828Z,78.70
2023-01-17T21:15:27.173Z,78.71
2023-01-17T21:17:26.959Z,78.66
2023-01-17T21:19:26.980Z,78.67
2023-01-17T21:20:26.430Z,78.56
2023-01-17T21:21:27.255Z,78.60
2023-01-17T21:23:26.858Z,78.66
2023-01-17T21:25:26.695Z,78.79
2023-01-17T21:27:26.999Z,78.86
2023-01-17T21:29:27.428Z,78.86
2023-01-17T21:31:27.057Z,78.86
2023-01-17T21:32:26.833Z,78.87
2023-01-17T21:33:27.718Z,78.75
2023-01-17T21:35:27.444Z,78.93
2023-01-17T21:37:26.800Z,79.01
2023-01-17T21:39:26.973Z,79.22
2023-01-17T21:41:27.156Z,79.22
2023-01-17T21:43:27.184Z,79.22
2023-01-17T21:45:27.710Z,79.24
2023-01-17T21:47:27.482Z,79.39
2023-01-17T21:49:27.648Z,79.47
2023-01-17T21:50:43.046Z,79.42
2023-01-17T21:51:27.059Z,79.47
2023-01-17T21:53:26.993Z,79.52
2023-01-17T21:55:27.749Z,79.58
2023-01-17T21:57:27.104Z,79.78
2023-01-17T21:59:27.152Z,79.94
2023-01-17T22:01:27.088Z,80.03
2023-01-17T22:03:27.143Z,80.05
2023-01-17T22:04:26.346Z,79.98
2023-01-17T22:05:26.958Z,80.05
2023-01-17T22:07:27.067Z,80.23
2023-01-17T22:08:26.462Z,80.23
2023-01-17T22:09:26.941Z,80.28
2023-01-17T22:11:26.786Z,80.27
2023-01-17T22:13:26.614Z,80.29
2023-01-17T22:15:26.970Z,80.27
2023-01-17T22:17:27.348Z,80.19
2023-01-17T22:19:27.373Z,80.08
2023-01-17T22:20:29.613Z,80.07
2023-01-17T22:21:27.752Z,80.18
2023-01-17T22:23:27.512Z,80.30
2023-01-17T22:25:27.145Z,80.41
2023-01-17T22:27:27.168Z,80.42
2023-01-17T22:29:27.172Z,80.39
2023-01-17T22:30:26.728Z,80.39
2023-01-17T22:31:27.066Z,80.41
2023-01-17T22:32:26.675Z,80.53
2023-01-17T22:33:26.786Z,80.58
2023-01-17T22:35:27.307Z,80.63
2023-01-17T22:37:26.757Z,80.57
2023-01-17T22:39:26.209Z,80.50
2023-01-17T22:41:27.076Z,80.41
2023-01-17T22:43:26.736Z,80.47
2023-01-17T22:45:26.321Z,80.54
2023-01-17T22:47:26.825Z,80.67
2023-01-17T22:49:26.735Z,80.68
2023-01-17T22:51:26.607Z,80.72
2023-01-17T22:52:26.471Z,80.69
2023-01-17T22:53:26.639Z,80.66
2023-01-17T22:55:26.745Z,80.91
2023-01-17T22:57:26.912Z,80.75
2023-01-17T22:59:26.918Z,80.73
2023-01-17T23:01:27.012Z,80.77
2023-01-17T23:03:27.272Z,80.85
2023-01-17T23:05:26.426Z,80.79
2023-01-17T23:07:26.719Z,80.79
2023-01-17T23:09:26.594Z,80.77
2023-01-17T23:11:26.839Z,80.90
2023-01-17T23:13:27.015Z,80.97
2023-01-17T23:15:26.451Z,80.99
2023-01-17T23:17:26.788Z,80.98
2023-01-17T23:19:26.451Z,81.06
2023-01-17T23:21:26.442Z,81.21
2023-01-17T23:23:26.402Z,81.23
2023-01-17T23:25:26.474Z,81.31
2023-01-17T23:27:26.409Z,81.42
2023-01-17T23:29:26.228Z,81.56
2023-01-17T23:31:26.783Z,81.56
2023-01-17T23:33:26.336Z,81.56
2023-01-17T23:35:26.707Z,81.64
2023-01-17T23:37:26.601Z,81.55
2023-01-17T23:39:28.508Z,81.35
2023-01-17T23:41:27.015Z,81.41
2023-01-17T23:42:26.400Z,81.41
2023-01-17T23:43:26.591Z,81.47
2023-01-17T23:45:26.767Z,81.41
2023-01-17T23:47:26.248Z,81.41
2023-01-17T23:49:26.501Z,81.42
2023-01-17T23:51:26.951Z,81.52
2023-01-17T23:53:26.483Z,81.52
2023-01-17T23:54:27.005Z,81.54
2023-01-17T23:55:26.184Z,81.50
2023-01-17T23:57:26.315Z,81.36
2023-01-17T23:58:26.192Z,81.28
2023-01-17T23:59:26.416Z,81.16
